sensor_id;sensor_type;location;lat;lon;timestamp;pressure;altitude;pressure_sealevel;temperature;humidity
54146;BME280;40052;49.422;7.738;2022-08-30T00:00:19;74100.47;;;-145.25;51.38
54146;BME280;40052;49.422;7.738;2022-08-30T00:03:04;74100.47;;;-145.25;51.04
54146;BME280;40052;49.422;7.738;2022-08-30T00:05:31;74104.47;;;-145.25;51.19
54146;BME280;40052;49.422;7.738;2022-08-30T00:07:59;74092.44;;;-145.25;51.17
54146;BME280;40052;49.422;7.738;2022-08-30T00:10:26;74106.47;;;-145.25;50.68
54146;BME280;40052;49.422;7.738;2022-08-30T00:12:53;74116.50;;;-145.25;50.90
54146;BME280;40052;49.422;7.738;2022-08-30T00:15:24;74102.47;;;-145.25;51.30
54146;BME280;40052;49.422;7.738;2022-08-30T00:17:52;74116.50;;;-145.25;51.09
54146;BME280;40052;49.422;7.738;2022-08-30T00:20:26;74102.47;;;-145.25;51.06
54146;BME280;40052;49.422;7.738;2022-08-30T00:22:52;74118.50;;;-145.25;51.47
54146;BME280;40052;49.422;7.738;2022-08-30T00:25:18;74142.53;;;-145.25;52.63
54146;BME280;40052;49.422;7.738;2022-08-30T00:27:44;74126.50;;;-145.25;51.98
54146;BME280;40052;49.422;7.738;2022-08-30T00:30:11;74130.50;;;-145.25;52.15
54146;BME280;40052;49.422;7.738;2022-08-30T00:32:37;74100.47;;;-145.25;51.42
54146;BME280;40052;49.422;7.738;2022-08-30T00:35:04;74100.47;;;-145.25;51.33
54146;BME280;40052;49.422;7.738;2022-08-30T00:37:30;74116.50;;;-145.25;51.18
54146;BME280;40052;49.422;7.738;2022-08-30T00:39:56;74126.50;;;-145.25;51.24
54146;BME280;40052;49.422;7.738;2022-08-30T00:42:24;74130.50;;;-145.25;51.75
54146;BME280;40052;49.422;7.738;2022-08-30T00:44:50;74138.53;;;-145.25;51.50
54146;BME280;40052;49.422;7.738;2022-08-30T00:47:16;74156.56;;;-145.25;51.70
54146;BME280;40052;49.422;7.738;2022-08-30T00:49:47;74172.59;;;-145.25;52.12
54146;BME280;40052;49.422;7.738;2022-08-30T00:52:17;74170.59;;;-145.25;52.14
54146;BME280;40052;49.422;7.738;2022-08-30T00:54:44;74180.59;;;-145.25;52.89
54146;BME280;40052;49.422;7.738;2022-08-30T00:57:12;74174.59;;;-145.25;52.38
54146;BME280;40052;49.422;7.738;2022-08-30T00:59:42;74154.56;;;-145.25;51.35
54146;BME280;40052;49.422;7.738;2022-08-30T01:02:11;74136.53;;;-145.25;50.60
54146;BME280;40052;49.422;7.738;2022-08-30T01:04:38;74138.53;;;-145.25;50.84
54146;BME280;40052;49.422;7.738;2022-08-30T01:07:05;74156.56;;;-145.25;51.20
54146;BME280;40052;49.422;7.738;2022-08-30T01:09:34;74154.56;;;-145.25;51.03
54146;BME280;40052;49.422;7.738;2022-08-30T01:12:03;74168.59;;;-145.25;51.83
54146;BME280;40052;49.422;7.738;2022-08-30T01:14:29;74178.59;;;-145.25;52.15
54146;BME280;40052;49.422;7.738;2022-08-30T01:16:57;74186.63;;;-145.25;52.25
54146;BME280;40052;49.422;7.738;2022-08-30T01:19:41;74184.63;;;-145.25;51.96
54146;BME280;40052;49.422;7.738;2022-08-30T01:25:18;74132.50;;;-145.25;51.31
54146;BME280;40052;49.422;7.738;2022-08-30T01:27:50;74144.53;;;-145.25;51.57
54146;BME280;40052;49.422;7.738;2022-08-30T01:30:17;74186.63;;;-145.25;52.46
54146;BME280;40052;49.422;7.738;2022-08-30T01:32:46;74162.56;;;-145.25;52.77
54146;BME280;40052;49.422;7.738;2022-08-30T01:35:15;74158.56;;;-145.25;51.71
54146;BME280;40052;49.422;7.738;2022-08-30T01:37:43;74198.63;;;-145.25;52.15
54146;BME280;40052;49.422;7.738;2022-08-30T01:40:10;74196.63;;;-145.25;52.57
54146;BME280;40052;49.422;7.738;2022-08-30T01:42:36;74208.66;;;-145.25;52.52
54146;BME280;40052;49.422;7.738;2022-08-30T01:45:06;74214.66;;;-145.25;52.54
54146;BME280;40052;49.422;7.738;2022-08-30T01:47:32;74188.63;;;-145.25;51.47
54146;BME280;40052;49.422;7.738;2022-08-30T01:50:00;74190.63;;;-145.25;51.13
54146;BME280;40052;49.422;7.738;2022-08-30T01:52:26;74198.63;;;-145.25;51.35
54146;BME280;40052;49.422;7.738;2022-08-30T01:54:55;74212.66;;;-145.25;52.19
54146;BME280;40052;49.422;7.738;2022-08-30T01:57:22;74226.69;;;-145.25;52.33
54146;BME280;40052;49.422;7.738;2022-08-30T01:59:48;74236.72;;;-145.25;52.29
54146;BME280;40052;49.422;7.738;2022-08-30T02:02:22;74216.66;;;-145.25;52.58
54146;BME280;40052;49.422;7.738;2022-08-30T02:04:52;74208.66;;;-145.25;51.91
54146;BME280;40052;49.422;7.738;2022-08-30T02:07:22;74232.69;;;-145.25;52.53
54146;BME280;40052;49.422;7.738;2022-08-30T02:09:48;74252.75;;;-145.25;53.50
54146;BME280;40052;49.422;7.738;2022-08-30T02:12:16;74258.75;;;-145.25;53.64
54146;BME280;40052;49.422;7.738;2022-08-30T02:14:41;74270.78;;;-145.25;53.78
54146;BME280;40052;49.422;7.738;2022-08-30T02:17:11;74294.81;;;-145.25;54.47
54146;BME280;40052;49.422;7.738;2022-08-30T02:19:38;74268.78;;;-145.25;53.78
54146;BME280;40052;49.422;7.738;2022-08-30T02:22:07;74274.78;;;-145.25;54.40
54146;BME280;40052;49.422;7.738;2022-08-30T02:24:32;74278.78;;;-145.25;54.66
54146;BME280;40052;49.422;7.738;2022-08-30T02:26:57;74268.78;;;-145.25;54.47
54146;BME280;40052;49.422;7.738;2022-08-30T02:29:24;74260.75;;;-145.25;54.37
54146;BME280;40052;49.422;7.738;2022-08-30T02:31:50;74256.75;;;-145.25;53.80
54146;BME280;40052;49.422;7.738;2022-08-30T02:34:18;74216.66;;;-145.25;52.86
54146;BME280;40052;49.422;7.738;2022-08-30T02:36:44;74194.63;;;-145.25;52.93
54146;BME280;40052;49.422;7.738;2022-08-30T02:39:11;74174.59;;;-145.25;52.57
54146;BME280;40052;49.422;7.738;2022-08-30T02:41:40;74214.66;;;-145.25;53.03
54146;BME280;40052;49.422;7.738;2022-08-30T02:44:09;74224.69;;;-145.25;53.14
54146;BME280;40052;49.422;7.738;2022-08-30T02:46:35;74278.78;;;-145.25;54.29
54146;BME280;40052;49.422;7.738;2022-08-30T02:49:03;74284.78;;;-145.25;54.70
54146;BME280;40052;49.422;7.738;2022-08-30T02:51:32;74290.81;;;-145.25;54.62
54146;BME280;40052;49.422;7.738;2022-08-30T02:54:00;74276.78;;;-145.25;54.28
54146;BME280;40052;49.422;7.738;2022-08-30T02:56:28;74232.69;;;-145.25;53.83
54146;BME280;40052;49.422;7.738;2022-08-30T02:58:56;74196.63;;;-145.25;52.95
54146;BME280;40052;49.422;7.738;2022-08-30T03:01:21;74204.66;;;-145.25;52.65
54146;BME280;40052;49.422;7.738;2022-08-30T03:03:47;74226.69;;;-145.25;53.50
54146;BME280;40052;49.422;7.738;2022-08-30T03:06:13;74252.75;;;-145.25;54.68
54146;BME280;40052;49.422;7.738;2022-08-30T03:08:38;74262.75;;;-145.25;54.32
54146;BME280;40052;49.422;7.738;2022-08-30T03:11:04;74274.78;;;-145.25;55.10
54146;BME280;40052;49.422;7.738;2022-08-30T03:13:30;74274.78;;;-145.25;54.83
54146;BME280;40052;49.422;7.738;2022-08-30T03:15:58;74298.81;;;-145.25;55.24
54146;BME280;40052;49.422;7.738;2022-08-30T03:18:23;74314.84;;;-145.25;55.34
54146;BME280;40052;49.422;7.738;2022-08-30T03:20:49;74338.91;;;-145.25;55.90
54146;BME280;40052;49.422;7.738;2022-08-30T03:23:17;74320.88;;;-145.25;55.87
54146;BME280;40052;49.422;7.738;2022-08-30T03:25:43;74318.88;;;-145.25;55.63
54146;BME280;40052;49.422;7.738;2022-08-30T03:28:08;74256.75;;;-145.25;55.05
54146;BME280;40052;49.422;7.738;2022-08-30T03:30:36;74214.66;;;-145.25;54.26
54146;BME280;40052;49.422;7.738;2022-08-30T03:33:01;74242.72;;;-145.25;54.53
54146;BME280;40052;49.422;7.738;2022-08-30T03:35:28;74266.75;;;-145.25;55.58
54146;BME280;40052;49.422;7.738;2022-08-30T03:37:53;74298.81;;;-145.25;55.93
54146;BME280;40052;49.422;7.738;2022-08-30T03:40:20;74306.84;;;-145.25;56.65
54146;BME280;40052;49.422;7.738;2022-08-30T03:42:46;74302.84;;;-145.25;56.52
54146;BME280;40052;49.422;7.738;2022-08-30T03:45:15;74338.91;;;-145.25;57.24
54146;BME280;40052;49.422;7.738;2022-08-30T03:47:42;74326.88;;;-145.25;57.38
54146;BME280;40052;49.422;7.738;2022-08-30T03:50:08;74326.88;;;-145.25;57.51
54146;BME280;40052;49.422;7.738;2022-08-30T03:52:34;74332.88;;;-145.25;57.53
54146;BME280;40052;49.422;7.738;2022-08-30T03:55:00;74322.88;;;-145.25;57.27
54146;BME280;40052;49.422;7.738;2022-08-30T03:57:28;74332.88;;;-145.25;56.88
54146;BME280;40052;49.422;7.738;2022-08-30T03:59:53;74314.84;;;-145.25;56.96
54146;BME280;40052;49.422;7.738;2022-08-30T04:02:19;74326.88;;;-145.25;56.94
54146;BME280;40052;49.422;7.738;2022-08-30T04:04:47;74338.91;;;-145.25;56.89
54146;BME280;40052;49.422;7.738;2022-08-30T04:07:12;74338.91;;;-145.25;57.13
54146;BME280;40052;49.422;7.738;2022-08-30T04:09:40;74340.91;;;-145.25;57.26
54146;BME280;40052;49.422;7.738;2022-08-30T04:12:08;74362.94;;;-145.25;57.26
54146;BME280;40052;49.422;7.738;2022-08-30T04:14:36;74378.97;;;-145.25;57.48
54146;BME280;40052;49.422;7.738;2022-08-30T04:17:01;74372.97;;;-145.25;58.15
54146;BME280;40052;49.422;7.738;2022-08-30T04:19:27;74360.94;;;-145.25;57.64
54146;BME280;40052;49.422;7.738;2022-08-30T04:21:52;74370.97;;;-145.25;57.74
54146;BME280;40052;49.422;7.738;2022-08-30T04:24:18;74378.97;;;-145.25;58.28
54146;BME280;40052;49.422;7.738;2022-08-30T04:26:44;74360.94;;;-145.25;57.72
54146;BME280;40052;49.422;7.738;2022-08-30T04:29:09;74382.97;;;-145.25;57.99
54146;BME280;40052;49.422;7.738;2022-08-30T04:31:36;74380.97;;;-145.25;57.89
54146;BME280;40052;49.422;7.738;2022-08-30T04:34:01;74380.97;;;-145.25;58.04
54146;BME280;40052;49.422;7.738;2022-08-30T04:36:27;74354.94;;;-145.25;57.77
54146;BME280;40052;49.422;7.738;2022-08-30T04:38:52;74334.91;;;-145.25;57.29
54146;BME280;40052;49.422;7.738;2022-08-30T04:41:19;74348.91;;;-145.25;57.30
54146;BME280;40052;49.422;7.738;2022-08-30T04:43:46;74370.97;;;-145.25;57.91
54146;BME280;40052;49.422;7.738;2022-08-30T04:46:12;74376.97;;;-145.25;57.93
54146;BME280;40052;49.422;7.738;2022-08-30T04:48:38;74399.00;;;-145.25;58.71
54146;BME280;40052;49.422;7.738;2022-08-30T04:51:08;74378.97;;;-145.25;57.95
54146;BME280;40052;49.422;7.738;2022-08-30T04:53:35;74415.03;;;-145.25;58.44
54146;BME280;40052;49.422;7.738;2022-08-30T04:56:05;74415.03;;;-145.25;58.54
54146;BME280;40052;49.422;7.738;2022-08-30T04:58:33;74401.03;;;-145.25;58.90
54146;BME280;40052;49.422;7.738;2022-08-30T05:01:00;74372.97;;;-145.25;57.84
54146;BME280;40052;49.422;7.738;2022-08-30T05:03:28;74368.97;;;-145.25;57.12
54146;BME280;40052;49.422;7.738;2022-08-30T05:05:56;74389.00;;;-145.25;57.75
54146;BME280;40052;49.422;7.738;2022-08-30T05:08:24;74391.00;;;-145.25;58.15
54146;BME280;40052;49.422;7.738;2022-08-30T05:10:50;74399.00;;;-145.25;58.55
54146;BME280;40052;49.422;7.738;2022-08-30T05:13:18;74389.00;;;-145.25;58.23
54146;BME280;40052;49.422;7.738;2022-08-30T05:15:46;74389.00;;;-145.25;57.80
54146;BME280;40052;49.422;7.738;2022-08-30T05:18:11;74342.91;;;-145.25;57.06
54146;BME280;40052;49.422;7.738;2022-08-30T05:20:41;74344.91;;;-145.25;56.76
54146;BME280;40052;49.422;7.738;2022-08-30T05:23:06;74360.94;;;-145.25;57.07
54146;BME280;40052;49.422;7.738;2022-08-30T05:25:37;74348.91;;;-145.25;57.35
54146;BME280;40052;49.422;7.738;2022-08-30T05:28:03;74356.94;;;-145.25;57.13
54146;BME280;40052;49.422;7.738;2022-08-30T05:30:31;74350.94;;;-145.25;56.98
54146;BME280;40052;49.422;7.738;2022-08-30T05:32:57;74338.91;;;-145.25;56.71
54146;BME280;40052;49.422;7.738;2022-08-30T05:35:25;74336.91;;;-145.25;56.37
54146;BME280;40052;49.422;7.738;2022-08-30T05:37:51;74320.88;;;-145.25;56.44
54146;BME280;40052;49.422;7.738;2022-08-30T05:40:18;74316.84;;;-145.25;56.38
54146;BME280;40052;49.422;7.738;2022-08-30T05:42:44;74332.88;;;-145.25;56.65
54146;BME280;40052;49.422;7.738;2022-08-30T05:45:11;74328.88;;;-145.25;56.76
54146;BME280;40052;49.422;7.738;2022-08-30T05:47:37;74318.88;;;-145.25;56.20
54146;BME280;40052;49.422;7.738;2022-08-30T05:50:03;74304.84;;;-145.25;56.02
54146;BME280;40052;49.422;7.738;2022-08-30T05:52:34;74310.84;;;-145.25;55.90
54146;BME280;40052;49.422;7.738;2022-08-30T05:55:02;74292.81;;;-145.25;55.76
54146;BME280;40052;49.422;7.738;2022-08-30T05:57:37;74310.84;;;-145.25;55.91
54146;BME280;40052;49.422;7.738;2022-08-30T06:00:06;74318.88;;;-145.25;55.90
54146;BME280;40052;49.422;7.738;2022-08-30T06:02:34;74318.88;;;-145.25;56.33
54146;BME280;40052;49.422;7.738;2022-08-30T06:05:03;74338.91;;;-145.25;56.12
54146;BME280;40052;49.422;7.738;2022-08-30T06:07:31;74324.88;;;-145.25;56.33
54146;BME280;40052;49.422;7.738;2022-08-30T06:09:56;74328.88;;;-145.25;56.57
54146;BME280;40052;49.422;7.738;2022-08-30T06:12:22;74322.88;;;-145.25;56.69
54146;BME280;40052;49.422;7.738;2022-08-30T06:14:50;74336.91;;;-145.25;56.59
54146;BME280;40052;49.422;7.738;2022-08-30T06:17:15;74320.88;;;-145.25;56.13
54146;BME280;40052;49.422;7.738;2022-08-30T06:19:41;74304.84;;;-145.25;55.95
54146;BME280;40052;49.422;7.738;2022-08-30T06:22:06;74262.75;;;-145.25;55.58
54146;BME280;40052;49.422;7.738;2022-08-30T06:24:36;74264.75;;;-145.25;55.20
54146;BME280;40052;49.422;7.738;2022-08-30T06:27:02;74252.75;;;-145.25;54.25
54146;BME280;40052;49.422;7.738;2022-08-30T06:29:28;74230.69;;;-145.25;53.42
54146;BME280;40052;49.422;7.738;2022-08-30T06:31:57;74212.66;;;-145.25;53.46
54146;BME280;40052;49.422;7.738;2022-08-30T06:34:25;74198.63;;;-145.25;52.49
54146;BME280;40052;49.422;7.738;2022-08-30T06:36:52;74188.63;;;-145.25;52.44
54146;BME280;40052;49.422;7.738;2022-08-30T06:39:19;74190.63;;;-145.25;52.46
54146;BME280;40052;49.422;7.738;2022-08-30T06:41:45;74172.59;;;-145.25;51.86
54146;BME280;40052;49.422;7.738;2022-08-30T06:44:10;74156.56;;;-145.25;51.13
54146;BME280;40052;49.422;7.738;2022-08-30T06:46:37;74142.53;;;-145.25;51.23
54146;BME280;40052;49.422;7.738;2022-08-30T06:49:06;74120.50;;;-145.25;50.45
54146;BME280;40052;49.422;7.738;2022-08-30T06:51:35;74120.50;;;-145.25;50.56
54146;BME280;40052;49.422;7.738;2022-08-30T06:54:02;74122.50;;;-145.25;49.98
54146;BME280;40052;49.422;7.738;2022-08-30T06:56:27;74120.50;;;-145.25;49.80
54146;BME280;40052;49.422;7.738;2022-08-30T06:58:55;74102.47;;;-145.25;49.84
54146;BME280;40052;49.422;7.738;2022-08-30T07:01:24;74092.44;;;-145.25;49.60
54146;BME280;40052;49.422;7.738;2022-08-30T07:03:53;74088.44;;;-145.25;49.52
54146;BME280;40052;49.422;7.738;2022-08-30T07:06:20;74068.41;;;-145.25;49.02
54146;BME280;40052;49.422;7.738;2022-08-30T07:08:46;74068.41;;;-145.25;49.29
54146;BME280;40052;49.422;7.738;2022-08-30T07:11:13;74058.38;;;-145.25;48.83
54146;BME280;40052;49.422;7.738;2022-08-30T07:13:39;74042.34;;;-145.25;48.89
54146;BME280;40052;49.422;7.738;2022-08-30T07:16:11;74024.31;;;-145.25;48.34
54146;BME280;40052;49.422;7.738;2022-08-30T07:18:37;74018.31;;;-145.25;48.53
54146;BME280;40052;49.422;7.738;2022-08-30T07:21:20;74002.28;;;-145.25;48.29
54146;BME280;40052;49.422;7.738;2022-08-30T07:23:46;73994.25;;;-145.25;47.78
54146;BME280;40052;49.422;7.738;2022-08-30T07:26:18;73974.22;;;-145.25;47.66
54146;BME280;40052;49.422;7.738;2022-08-30T07:28:47;73980.25;;;-145.25;47.50
54146;BME280;40052;49.422;7.738;2022-08-30T07:31:14;73934.16;;;-145.25;47.11
54146;BME280;40052;49.422;7.738;2022-08-30T07:33:42;73930.16;;;-145.25;47.19
54146;BME280;40052;49.422;7.738;2022-08-30T07:36:08;73922.13;;;-145.25;46.72
54146;BME280;40052;49.422;7.738;2022-08-30T07:38:34;73904.09;;;-145.25;46.64
54146;BME280;40052;49.422;7.738;2022-08-30T07:41:04;73918.13;;;-145.25;46.93
54146;BME280;40052;49.422;7.738;2022-08-30T07:43:31;73918.13;;;-145.25;47.08
54146;BME280;40052;49.422;7.738;2022-08-30T07:46:04;73902.09;;;-145.25;46.94
54146;BME280;40052;49.422;7.738;2022-08-30T07:48:31;73880.06;;;-145.25;46.69
54146;BME280;40052;49.422;7.738;2022-08-30T07:51:01;73848.00;;;-145.25;46.32
54146;BME280;40052;49.422;7.738;2022-08-30T07:53:29;73833.97;;;-145.25;45.97
54146;BME280;40052;49.422;7.738;2022-08-30T07:55:56;73821.97;;;-145.25;45.72
54146;BME280;40052;49.422;7.738;2022-08-30T07:58:21;73803.91;;;-145.25;45.42
54146;BME280;40052;49.422;7.738;2022-08-30T08:00:49;73789.91;;;-145.25;45.11
54146;BME280;40052;49.422;7.738;2022-08-30T08:03:14;73783.88;;;-145.25;44.89
54146;BME280;40052;49.422;7.738;2022-08-30T08:05:42;73767.84;;;-145.25;44.67
54146;BME280;40052;49.422;7.738;2022-08-30T08:08:09;73757.84;;;-145.25;44.66
54146;BME280;40052;49.422;7.738;2022-08-30T08:10:37;73743.81;;;-145.25;44.34
54146;BME280;40052;49.422;7.738;2022-08-30T08:13:03;73737.81;;;-145.25;44.47
54146;BME280;40052;49.422;7.738;2022-08-30T08:15:29;73713.75;;;-145.25;44.25
54146;BME280;40052;49.422;7.738;2022-08-30T08:17:56;73717.78;;;-145.25;44.26
54146;BME280;40052;49.422;7.738;2022-08-30T08:20:22;73695.72;;;-145.25;43.78
54146;BME280;40052;49.422;7.738;2022-08-30T08:22:47;73661.69;;;-145.25;43.55
54146;BME280;40052;49.422;7.738;2022-08-30T08:25:16;73643.66;;;-145.25;43.14
54146;BME280;40052;49.422;7.738;2022-08-30T08:27:49;73623.59;;;-145.25;42.88
54146;BME280;40052;49.422;7.738;2022-08-30T08:30:16;73621.59;;;-145.25;42.51
54146;BME280;40052;49.422;7.738;2022-08-30T08:32:44;73615.59;;;-145.25;42.54
54146;BME280;40052;49.422;7.738;2022-08-30T08:35:16;73599.56;;;-145.25;42.28
54146;BME280;40052;49.422;7.738;2022-08-30T08:37:41;73579.53;;;-145.25;42.30
54146;BME280;40052;49.422;7.738;2022-08-30T08:40:09;73565.50;;;-145.25;41.97
54146;BME280;40052;49.422;7.738;2022-08-30T08:42:50;73577.53;;;-145.25;42.19
54146;BME280;40052;49.422;7.738;2022-08-30T08:45:27;73563.50;;;-145.25;42.02
54146;BME280;40052;49.422;7.738;2022-08-30T08:48:03;73553.50;;;-145.25;44.12
54146;BME280;40052;49.422;7.738;2022-08-30T08:50:35;73539.47;;;-145.25;42.87
54146;BME280;40052;49.422;7.738;2022-08-30T08:53:26;73519.44;;;-145.25;42.60
54146;BME280;40052;49.422;7.738;2022-08-30T08:56:03;73505.41;;;-145.25;41.82
54146;BME280;40052;49.422;7.738;2022-08-30T08:58:44;73483.38;;;-145.25;41.63
54146;BME280;40052;49.422;7.738;2022-08-30T09:01:12;73471.34;;;-145.25;42.42
54146;BME280;40052;49.422;7.738;2022-08-30T09:03:40;73461.34;;;-145.25;42.46
54146;BME280;40052;49.422;7.738;2022-08-30T09:06:22;73441.31;;;-145.25;42.03
54146;BME280;40052;49.422;7.738;2022-08-30T09:08:49;73419.25;;;-145.25;42.00
54146;BME280;40052;49.422;7.738;2022-08-30T09:11:41;73385.22;;;-145.25;41.76
54146;BME280;40052;49.422;7.738;2022-08-30T09:14:16;73381.19;;;-145.25;41.17
54146;BME280;40052;49.422;7.738;2022-08-30T09:17:10;73347.16;;;-145.25;40.91
54146;BME280;40052;49.422;7.738;2022-08-30T09:19:42;73331.13;;;-145.25;40.65
54146;BME280;40052;49.422;7.738;2022-08-30T09:25:00;73289.06;;;-145.25;39.99
54146;BME280;40052;49.422;7.738;2022-08-30T09:27:32;73251.00;;;-145.25;40.25
54146;BME280;40052;49.422;7.738;2022-08-30T09:30:22;73226.94;;;-145.25;39.72
54146;BME280;40052;49.422;7.738;2022-08-30T09:32:59;73214.94;;;-145.25;39.41
54146;BME280;40052;49.422;7.738;2022-08-30T09:35:34;73176.88;;;-145.25;38.89
54146;BME280;40052;49.422;7.738;2022-08-30T09:40:42;73168.84;;;-145.25;38.72
54146;BME280;40052;49.422;7.738;2022-08-30T09:45:47;73138.81;;;-145.25;38.79
54146;BME280;40052;49.422;7.738;2022-08-30T09:48:31;73126.78;;;-145.25;38.62
54146;BME280;40052;49.422;7.738;2022-08-30T09:56:42;73060.69;;;-145.25;37.90
54146;BME280;40052;49.422;7.738;2022-08-30T10:01:59;73016.63;;;-145.25;37.22
54146;BME280;40052;49.422;7.738;2022-08-30T10:07:39;72992.56;;;-145.25;37.28
54146;BME280;40052;49.422;7.738;2022-08-30T10:10:18;72980.56;;;-145.25;37.55
54146;BME280;40052;49.422;7.738;2022-08-30T10:13:13;72956.53;;;-145.25;37.66
54146;BME280;40052;49.422;7.738;2022-08-30T10:15:57;72934.50;;;-145.25;37.00
54146;BME280;40052;49.422;7.738;2022-08-30T10:21:10;72914.44;;;-145.25;36.94
54146;BME280;40052;49.422;7.738;2022-08-30T10:23:44;72894.44;;;-145.25;36.74
54146;BME280;40052;49.422;7.738;2022-08-30T10:29:13;72860.38;;;-145.25;36.00
54146;BME280;40052;49.422;7.738;2022-08-30T10:31:44;72834.34;;;-145.25;36.10
54146;BME280;40052;49.422;7.738;2022-08-30T10:34:17;72822.31;;;-145.25;36.03
54146;BME280;40052;49.422;7.738;2022-08-30T10:37:00;72788.25;;;-145.25;35.86
54146;BME280;40052;49.422;7.738;2022-08-30T10:39:30;72766.22;;;-145.25;35.12
54146;BME280;40052;49.422;7.738;2022-08-30T10:42:10;72748.19;;;-145.25;35.17
54146;BME280;40052;49.422;7.738;2022-08-30T10:44:41;72730.19;;;-145.25;35.40
54146;BME280;40052;49.422;7.738;2022-08-30T10:49:50;72730.19;;;-145.25;34.68
54146;BME280;40052;49.422;7.738;2022-08-30T10:52:40;72696.13;;;-145.25;34.75
54146;BME280;40052;49.422;7.738;2022-08-30T10:55:29;72690.13;;;-145.25;34.30
54146;BME280;40052;49.422;7.738;2022-08-30T10:58:03;72664.06;;;-145.25;34.76
54146;BME280;40052;49.422;7.738;2022-08-30T11:00:35;72658.06;;;-145.25;34.17
54146;BME280;40052;49.422;7.738;2022-08-30T11:03:24;72650.06;;;-145.25;34.23
54146;BME280;40052;49.422;7.738;2022-08-30T11:06:06;72666.09;;;-145.25;34.08
54146;BME280;40052;49.422;7.738;2022-08-30T11:13:55;72788.25;;;-145.25;36.57
54146;BME280;40052;49.422;7.738;2022-08-30T11:16:36;72768.22;;;-145.25;35.92
54146;BME280;40052;49.422;7.738;2022-08-30T11:19:16;72774.25;;;-145.25;36.33
54146;BME280;40052;49.422;7.738;2022-08-30T11:21:44;72756.22;;;-145.25;36.54
54146;BME280;40052;49.422;7.738;2022-08-30T11:24:21;72754.22;;;-145.25;36.00
54146;BME280;40052;49.422;7.738;2022-08-30T11:29:42;72698.13;;;-145.25;35.86
54146;BME280;40052;49.422;7.738;2022-08-30T11:46:33;72543.91;;;-145.25;34.02
54146;BME280;40052;49.422;7.738;2022-08-30T11:52:09;72505.84;;;-145.25;33.12
54146;BME280;40052;49.422;7.738;2022-08-30T12:00:34;72575.94;;;-145.25;33.59
54146;BME280;40052;49.422;7.738;2022-08-30T12:10:54;72539.91;;;-145.25;33.72
54146;BME280;40052;49.422;7.738;2022-08-30T12:16:02;72497.84;;;-145.25;32.96
54146;BME280;40052;49.422;7.738;2022-08-30T12:28:52;72668.09;;;-145.25;34.60
54146;BME280;40052;49.422;7.738;2022-08-30T12:31:29;72690.13;;;-145.25;34.99
54146;BME280;40052;49.422;7.738;2022-08-30T12:33:59;72718.16;;;-145.25;35.00
54146;BME280;40052;49.422;7.738;2022-08-30T12:36:38;72738.19;;;-145.25;35.01
54146;BME280;40052;49.422;7.738;2022-08-30T12:41:35;72662.06;;;-145.25;34.32
54146;BME280;40052;49.422;7.738;2022-08-30T12:44:04;72664.06;;;-145.25;34.42
54146;BME280;40052;49.422;7.738;2022-08-30T12:46:31;72698.13;;;-145.25;34.68
54146;BME280;40052;49.422;7.738;2022-08-30T12:49:01;72708.16;;;-145.25;34.67
54146;BME280;40052;49.422;7.738;2022-08-30T12:51:40;72724.16;;;-145.25;34.93
54146;BME280;40052;49.422;7.738;2022-08-30T12:54:20;72742.19;;;-145.25;34.95
54146;BME280;40052;49.422;7.738;2022-08-30T12:56:51;72734.19;;;-145.25;34.95
54146;BME280;40052;49.422;7.738;2022-08-30T12:59:43;72648.06;;;-145.25;34.29
54146;BME280;40052;49.422;7.738;2022-08-30T13:02:24;72581.97;;;-145.25;33.88
54146;BME280;40052;49.422;7.738;2022-08-30T13:04:54;72553.91;;;-145.25;33.72
54146;BME280;40052;49.422;7.738;2022-08-30T13:07:37;72593.97;;;-145.25;33.83
54146;BME280;40052;49.422;7.738;2022-08-30T13:10:12;72593.97;;;-145.25;33.68
54146;BME280;40052;49.422;7.738;2022-08-30T13:12:38;72610.00;;;-145.25;34.00
54146;BME280;40052;49.422;7.738;2022-08-30T13:15:19;72593.97;;;-145.25;33.83
54146;BME280;40052;49.422;7.738;2022-08-30T13:20:47;72479.81;;;-145.25;32.99
54146;BME280;40052;49.422;7.738;2022-08-30T13:23:21;72421.72;;;-145.25;32.65
54146;BME280;40052;49.422;7.738;2022-08-30T13:25:49;72379.66;;;-145.25;32.34
54146;BME280;40052;49.422;7.738;2022-08-30T13:28:14;72341.63;;;-145.25;31.91
54146;BME280;40052;49.422;7.738;2022-08-30T13:30:40;72331.59;;;-145.25;31.47
54146;BME280;40052;49.422;7.738;2022-08-30T13:33:06;72323.59;;;-145.25;31.35
54146;BME280;40052;49.422;7.738;2022-08-30T13:35:35;72285.53;;;-145.25;31.30
54146;BME280;40052;49.422;7.738;2022-08-30T13:38:01;72239.47;;;-145.25;31.19
54146;BME280;40052;49.422;7.738;2022-08-30T13:40:26;72249.47;;;-145.25;30.95
54146;BME280;40052;49.422;7.738;2022-08-30T13:42:52;72225.44;;;-145.25;30.73
54146;BME280;40052;49.422;7.738;2022-08-30T13:45:18;72215.44;;;-145.25;30.66
54146;BME280;40052;49.422;7.738;2022-08-30T13:47:45;72277.53;;;-145.25;30.82
54146;BME280;40052;49.422;7.738;2022-08-30T13:50:12;72329.59;;;-145.25;31.06
54146;BME280;40052;49.422;7.738;2022-08-30T13:52:38;72387.69;;;-145.25;31.78
54146;BME280;40052;49.422;7.738;2022-08-30T13:55:04;72405.69;;;-145.25;31.72
54146;BME280;40052;49.422;7.738;2022-08-30T13:57:30;72351.63;;;-145.25;31.69
54146;BME280;40052;49.422;7.738;2022-08-30T13:59:56;72351.63;;;-145.25;31.68
54146;BME280;40052;49.422;7.738;2022-08-30T14:02:21;72335.59;;;-145.25;31.42
54146;BME280;40052;49.422;7.738;2022-08-30T14:04:49;72313.56;;;-145.25;31.33
54146;BME280;40052;49.422;7.738;2022-08-30T14:07:16;72393.69;;;-145.25;31.84
54146;BME280;40052;49.422;7.738;2022-08-30T14:09:43;72291.53;;;-145.25;31.22
54146;BME280;40052;49.422;7.738;2022-08-30T14:12:09;72261.50;;;-145.25;31.08
54146;BME280;40052;49.422;7.738;2022-08-30T14:14:36;72205.44;;;-145.25;30.65
54146;BME280;40052;49.422;7.738;2022-08-30T14:17:02;72201.41;;;-145.25;30.37
54146;BME280;40052;49.422;7.738;2022-08-30T14:19:27;72221.44;;;-145.25;30.26